Time;durP1;ratioP1;P1;durP2;ratioP2;P2;SDS_P1;SDS_P2;PMS_P1;PMS_P2;Temp;Humidity;BMP_temperature;BMP_pressure;BME280_temperature;BME280_humidity;BME280_pressure;Samples;Min_cycle;Max_cycle;Signal;HPM_P1;HPM_P2
2022/11/19 00:01:47;;;;;;;3.08;0.98;;;23.00;99.90;;;;;;5030880;28;20283;-82
2022/11/19 00:04:17;;;;;;;4.93;1.20;;;23.10;99.90;;;;;;5029197;28;20229;-81
2022/11/19 00:06:49;;;;;;;5.47;1.27;;;23.30;99.90;;;;;;5016325;28;20213;-83
2022/11/19 00:09:20;;;;;;;3.92;1.10;;;23.30;99.90;;;;;;5024262;28;20332;-84
2022/11/19 00:14:40;;;;;;;6.60;1.10;;;23.20;99.90;;;;;;5013947;28;20205;-84
2022/11/19 00:17:10;;;;;;;4.95;1.20;;;23.10;99.90;;;;;;5026187;28;20199;-84
2022/11/19 00:19:41;;;;;;;4.43;1.15;;;23.10;99.90;;;;;;5031279;28;20236;-84
2022/11/19 00:22:12;;;;;;;6.40;1.20;;;23.10;99.90;;;;;;5021799;28;20204;-85
2022/11/19 00:24:43;;;;;;;5.45;1.08;;;23.10;99.90;;;;;;5030722;28;20232;-85
2022/11/19 00:27:15;;;;;;;7.68;1.15;;;23.20;99.90;;;;;;5031171;28;20192;-85
2022/11/19 00:29:47;;;;;;;6.05;1.13;;;23.20;99.90;;;;;;5028958;28;20251;-85
2022/11/19 00:32:18;;;;;;;4.82;1.30;;;23.20;99.90;;;;;;5022156;28;20236;-84
2022/11/19 00:34:49;;;;;;;6.13;1.02;;;23.20;99.90;;;;;;5018295;28;20615;-83
2022/11/19 00:37:22;;;;;;;3.30;1.00;;;23.20;99.90;;;;;;5020711;28;20222;-86
2022/11/19 00:39:53;;;;;;;3.30;1.08;;;23.20;99.90;;;;;;5028286;28;20256;-85
2022/11/19 00:42:24;;;;;;;4.25;0.90;;;23.20;99.90;;;;;;5017209;28;20221;-83
2022/11/19 00:44:57;;;;;;;6.72;1.00;;;23.10;99.90;;;;;;5011421;28;20645;-82
2022/11/19 00:47:27;;;;;;;2.85;0.93;;;23.20;99.90;;;;;;5014164;28;20214;-83
2022/11/19 00:49:58;;;;;;;4.55;1.10;;;23.40;99.90;;;;;;5026021;28;20212;-83
2022/11/19 00:52:29;;;;;;;4.93;0.95;;;23.50;99.90;;;;;;5024794;28;20209;-83
2022/11/19 00:55:00;;;;;;;4.47;1.00;;;23.70;99.90;;;;;;5035582;28;20218;-83
2022/11/19 00:57:31;;;;;;;4.82;1.10;;;23.60;99.90;;;;;;5017840;28;20221;-84
2022/11/19 01:00:04;;;;;;;5.68;1.17;;;23.70;99.90;;;;;;5014927;28;20715;-83
2022/11/19 01:02:34;;;;;;;6.38;1.38;;;23.90;99.90;;;;;;5024688;28;20678;-83
2022/11/19 01:05:05;;;;;;;4.53;1.00;;;24.00;99.90;;;;;;5033705;28;20232;-83
2022/11/19 01:07:36;;;;;;;6.82;1.40;;;24.00;99.90;;;;;;5033982;28;20224;-83
2022/11/19 01:10:08;;;;;;;7.95;1.40;;;23.90;99.90;;;;;;5034075;28;20205;-83
2022/11/19 01:15:28;;;;;;;5.28;1.33;;;23.80;99.90;;;;;;5036961;28;20213;-83
2022/11/19 01:17:58;;;;;;;4.03;1.30;;;23.80;99.90;;;;;;5027816;28;20253;-84
2022/11/19 01:20:30;;;;;;;7.65;1.38;;;24.00;99.90;;;;;;5014298;28;20234;-84
2022/11/19 01:23:01;;;;;;;8.15;1.60;;;24.10;99.90;;;;;;5021305;28;20229;-85
2022/11/19 01:25:31;;;;;;;5.57;0.98;;;24.20;99.90;;;;;;5025558;28;20204;-83
2022/11/19 01:28:02;;;;;;;5.93;1.27;;;24.20;99.90;;;;;;5025832;28;20632;-86
2022/11/19 01:30:36;;;;;;;5.85;1.52;;;24.20;99.90;;;;;;5020536;28;20202;-87
2022/11/19 01:33:06;;;;;;;5.03;1.25;;;24.00;99.90;;;;;;5027812;28;20232;-84
2022/11/19 01:35:37;;;;;;;3.60;1.00;;;23.90;99.90;;;;;;5024988;28;20676;-89
2022/11/19 01:38:09;;;;;;;6.22;1.40;;;23.70;99.90;;;;;;5015015;28;20182;-89
2022/11/19 01:40:47;;;;;;;4.22;1.20;;;23.50;99.90;;;;;;5026052;28;20641;-86
2022/11/19 01:43:18;;;;;;;8.15;1.55;;;23.60;99.90;;;;;;5013909;28;20209;-86
2022/11/19 01:45:53;;;;;;;3.55;1.10;;;23.80;99.90;;;;;;5014442;28;20213;-85
2022/11/19 01:48:28;;;;;;;6.53;1.48;;;23.90;99.90;;;;;;5032469;28;20199;-86
2022/11/19 01:51:04;;;;;;;4.47;1.10;;;23.90;99.90;;;;;;5028596;28;20618;-85
2022/11/19 01:53:38;;;;;;;4.47;1.10;;;24.00;99.90;;;;;;5020673;28;20633;-84
2022/11/19 01:56:10;;;;;;;12.13;1.58;;;24.20;99.90;;;;;;5027787;28;20275;-84
2022/11/19 01:58:43;;;;;;;6.65;1.15;;;24.30;99.90;;;;;;5021624;28;20220;-84
2022/11/19 02:01:17;;;;;;;7.05;1.42;;;24.40;99.90;;;;;;5027179;28;20214;-84
2022/11/19 02:03:48;;;;;;;6.07;1.33;;;24.50;99.90;;;;;;5027545;28;20692;-82
2022/11/19 02:06:19;;;;;;;4.82;1.38;;;24.60;99.90;;;;;;5023254;28;20664;-82
2022/11/19 02:08:52;;;;;;;5.63;1.30;;;24.80;99.90;;;;;;5033620;28;20622;-83
2022/11/19 02:12:04;;;;;;;7.55;1.17;;;24.80;99.90;;;;;;5029435;28;21050;-84
2022/11/19 02:14:53;;;;;;;3.90;1.00;;;25.00;99.90;;;;;;5002558;28;20279;-83
2022/11/19 02:17:35;;;;;;;4.25;0.90;;;25.20;99.90;;;;;;5020064;28;20233;-83
2022/11/19 02:20:42;;;;;;;6.20;1.02;;;25.00;99.90;;;;;;5011319;28;20197;-85
2022/11/19 02:23:32;;;;;;;5.07;1.08;;;25.10;99.90;;;;;;5011360;28;20280;-85
2022/11/19 02:26:50;;;;;;;5.43;0.90;;;25.10;99.90;;;;;;5011082;28;20202;-85
2022/11/19 02:29:42;;;;;;;6.55;1.25;;;25.30;99.90;;;;;;5008805;28;20833;-86
2022/11/19 02:32:17;;;;;;;4.68;1.23;;;25.30;99.90;;;;;;5011427;28;21929;-84
2022/11/19 02:34:55;;;;;;;8.27;1.17;;;25.10;99.90;;;;;;5007478;28;20203;-86
2022/11/19 02:37:29;;;;;;;4.18;1.20;;;24.90;99.90;;;;;;5007522;28;20193;-83
2022/11/19 02:40:06;;;;;;;4.15;0.80;;;24.80;99.90;;;;;;5009584;28;20193;-85
2022/11/19 02:42:44;;;;;;;7.13;0.98;;;24.90;99.90;;;;;;5008328;28;20205;-86
2022/11/19 02:45:23;;;;;;;6.43;1.10;;;25.10;99.90;;;;;;5009344;28;20201;-85
2022/11/19 02:47:57;;;;;;;5.15;1.10;;;25.10;99.90;;;;;;5015776;28;20205;-87
2022/11/19 02:50:33;;;;;;;3.70;1.00;;;24.70;99.90;;;;;;5015071;28;20208;-85
2022/11/19 02:53:06;;;;;;;4.55;1.20;;;24.70;99.90;;;;;;5018138;28;20282;-87
2022/11/19 02:55:40;;;;;;;6.47;1.30;;;24.70;99.90;;;;;;5012548;28;20208;-86
2022/11/19 03:04:28;;;;;;;4.47;1.02;;;24.50;99.90;;;;;;5013009;28;20247;-87
2022/11/19 03:06:44;;;;;;;4.05;1.00;;;24.30;99.90;;;;;;5027501;28;20619;-86
2022/11/19 03:09:15;;;;;;;5.40;1.25;;;24.30;99.90;;;;;;5021488;28;20213;-85
2022/11/19 03:11:53;;;;;;;4.50;1.17;;;24.40;99.90;;;;;;5016524;28;20316;-85
2022/11/19 03:17:21;;;;;;;3.45;1.00;;;24.50;99.90;;;;;;5020623;28;20332;-88
2022/11/19 03:20:04;;;;;;;5.63;1.00;;;24.70;99.90;;;;;;5010802;28;20614;-85
2022/11/19 03:22:39;;;;;;;6.53;1.13;;;25.20;99.90;;;;;;5027669;28;20266;-83
2022/11/19 03:25:23;;;;;;;7.07;1.35;;;25.30;99.90;;;;;;5029728;28;20192;-85
2022/11/19 03:27:57;;;;;;;4.05;1.27;;;25.50;99.90;;;;;;5032311;28;20201;-86
2022/11/19 03:30:30;;;;;;;4.38;0.95;;;25.60;99.90;;;;;;5033673;28;20197;-84
2022/11/19 03:33:06;;;;;;;4.07;1.20;;;25.60;99.90;;;;;;5019675;28;20234;-84
2022/11/19 03:35:41;;;;;;;4.30;0.98;;;25.80;99.90;;;;;;5031351;28;20197;-84
2022/11/19 03:38:16;;;;;;;4.45;1.00;;;25.90;99.90;;;;;;5030141;28;20250;-83
2022/11/19 03:40:48;;;;;;;4.63;1.02;;;25.90;99.90;;;;;;5029792;28;20200;-84
2022/11/19 03:43:22;;;;;;;9.35;1.20;;;25.80;99.90;;;;;;5029378;28;20573;-84
2022/11/19 03:45:55;;;;;;;4.65;0.93;;;25.80;99.90;;;;;;5022906;28;20240;-85
2022/11/19 03:48:30;;;;;;;4.78;1.20;;;26.00;99.90;;;;;;5021195;28;20280;-86
2022/11/19 03:51:05;;;;;;;5.32;1.10;;;26.00;99.90;;;;;;5029814;28;20193;-85
2022/11/19 03:53:36;;;;;;;4.05;1.02;;;26.20;99.90;;;;;;5030528;28;20224;-85
2022/11/19 03:56:09;;;;;;;6.18;1.23;;;26.10;99.90;;;;;;5030235;28;20229;-83
2022/11/19 03:58:44;;;;;;;7.53;1.25;;;26.10;99.90;;;;;;5026023;28;20203;-84
2022/11/19 04:01:15;;;;;;;8.07;1.52;;;25.90;99.90;;;;;;5022670;28;20223;-84
2022/11/19 04:06:31;;;;;;;5.57;1.33;;;26.10;99.90;;;;;;5024922;28;20271;-85
2022/11/19 04:09:02;;;;;;;4.82;1.30;;;26.20;99.90;;;;;;5028034;28;20201;-85
2022/11/19 04:11:33;;;;;;;4.72;1.10;;;26.30;99.90;;;;;;5024776;28;20221;-85
2022/11/19 04:14:04;;;;;;;6.75;1.38;;;26.50;99.90;;;;;;5017342;28;20229;-86
2022/11/19 04:16:35;;;;;;;6.57;1.17;;;26.50;99.90;;;;;;5030445;28;20215;-86
2022/11/19 04:19:08;;;;;;;5.50;1.00;;;26.50;99.90;;;;;;5028660;28;20201;-85
2022/11/19 04:21:39;;;;;;;4.68;1.15;;;26.60;99.90;;;;;;5023952;28;20272;-86
2022/11/19 04:24:11;;;;;;;7.53;1.25;;;26.40;99.90;;;;;;5026451;28;20193;-87
2022/11/19 04:26:41;;;;;;;6.38;1.30;;;26.10;99.90;;;;;;5026211;28;20197;-86
2022/11/19 04:29:13;;;;;;;7.53;1.30;;;26.10;99.90;;;;;;5030792;28;20189;-86
2022/11/19 04:31:44;;;;;;;7.10;1.10;;;26.30;99.90;;;;;;5021008;28;20692;-85
2022/11/19 04:34:16;;;;;;;9.82;1.50;;;26.60;99.90;;;;;;5026602;28;20233;-84
2022/11/19 04:36:47;;;;;;;6.47;1.30;;;26.80;99.90;;;;;;5030227;28;20690;-86
2022/11/19 04:39:18;;;;;;;6.43;1.40;;;26.90;99.90;;;;;;5030253;28;20230;-86
2022/11/19 04:41:49;;;;;;;5.45;1.30;;;26.90;99.90;;;;;;5028649;28;20194;-86
2022/11/19 04:44:19;;;;;;;6.47;1.27;;;26.90;99.90;;;;;;5029505;28;20197;-87
2022/11/19 04:46:50;;;;;;;5.13;1.20;;;26.80;99.90;;;;;;5025240;28;20580;-86
2022/11/19 04:49:23;;;;;;;5.03;1.20;;;26.90;99.90;;;;;;5029127;28;20201;-86
2022/11/19 04:51:54;;;;;;;5.82;1.23;;;27.00;99.90;;;;;;5030871;28;20197;-86
2022/11/19 04:54:25;;;;;;;5.72;1.23;;;27.00;99.90;;;;;;5024645;28;20218;-86
2022/11/19 04:56:55;;;;;;;8.65;1.40;;;27.20;99.90;;;;;;5011313;28;20216;-86
2022/11/19 04:59:26;;;;;;;6.32;1.40;;;27.30;99.90;;;;;;5010703;28;20681;-86
2022/11/19 05:01:58;;;;;;;7.35;1.35;;;27.20;99.90;;;;;;5011196;28;20210;-87
2022/11/19 05:04:31;;;;;;;5.15;1.20;;;26.90;99.90;;;;;;5026965;28;20629;-86
2022/11/19 05:07:03;;;;;;;4.57;1.45;;;26.30;99.90;;;;;;5043796;28;20251;-86
2022/11/19 05:09:33;;;;;;;4.55;1.30;;;26.00;99.90;;;;;;5030325;28;20201;-87
2022/11/19 05:12:05;;;;;;;6.32;1.33;;;25.80;99.90;;;;;;5027789;28;20577;-86
2022/11/19 05:14:37;;;;;;;5.22;1.15;;;25.50;99.90;;;;;;5017678;28;20355;-87
2022/11/19 05:17:08;;;;;;;6.95;1.13;;;25.50;99.90;;;;;;5020521;28;20201;-87
2022/11/19 05:19:40;;;;;;;5.93;1.23;;;25.30;99.90;;;;;;5018100;28;20227;-87
2022/11/19 05:22:11;;;;;;;8.10;1.50;;;25.20;99.90;;;;;;5013267;28;20221;-87
2022/11/19 05:24:42;;;;;;;6.85;1.10;;;25.50;99.90;;;;;;5013227;28;20549;-87
2022/11/19 05:27:14;;;;;;;4.63;1.02;;;25.80;99.90;;;;;;5029599;28;20204;-91
2022/11/19 05:29:45;;;;;;;5.60;1.40;;;26.10;99.90;;;;;;5019581;28;20209;-87
2022/11/19 05:32:15;;;;;;;6.65;1.20;;;26.70;99.90;;;;;;5022417;28;20286;-89
2022/11/19 05:34:51;;;;;;;9.15;1.38;;;27.10;99.90;;;;;;5024981;28;20229;-87
2022/11/19 05:37:23;;;;;;;5.50;1.23;;;27.50;99.90;;;;;;5026062;28;20204;-87
2022/11/19 05:39:54;;;;;;;12.68;1.77;;;27.70;99.90;;;;;;5017822;28;20669;-86
2022/11/19 05:42:25;;;;;;;8.05;1.40;;;28.10;99.90;;;;;;5030294;28;20198;-86
2022/11/19 05:44:55;;;;;;;5.20;1.40;;;28.30;99.90;;;;;;5034493;28;20204;-86
2022/11/19 05:47:26;;;;;;;8.00;1.40;;;28.30;99.90;;;;;;5019358;28;20636;-87
2022/11/19 05:49:59;;;;;;;7.43;1.70;;;28.20;99.90;;;;;;5034210;28;20193;-86
2022/11/19 05:52:30;;;;;;;8.48;1.42;;;28.00;99.90;;;;;;5034514;28;20240;-86
2022/11/19 05:55:01;;;;;;;5.57;1.33;;;27.80;99.90;;;;;;5034464;28;20784;-86
2022/11/19 05:57:32;;;;;;;11.32;1.30;;;27.50;99.90;;;;;;5033721;28;20196;-87
2022/11/19 06:00:03;;;;;;;5.68;1.38;;;27.60;99.90;;;;;;5027440;28;20186;-86
2022/11/19 06:02:34;;;;;;;11.85;1.75;;;27.60;99.90;;;;;;5029867;28;20285;-85
2022/11/19 06:05:08;;;;;;;7.47;1.50;;;27.30;99.90;;;;;;5014509;28;20230;-87
2022/11/19 06:07:38;;;;;;;6.05;1.70;;;27.30;99.90;;;;;;5017052;28;20221;-86
2022/11/19 06:10:11;;;;;;;7.82;1.58;;;27.80;99.90;;;;;;5041524;28;20297;-86
2022/11/19 06:12:44;;;;;;;8.07;1.63;;;28.30;99.90;;;;;;5023849;28;20194;-86
2022/11/19 06:15:15;;;;;;;7.40;1.80;;;28.60;99.90;;;;;;5031846;28;20239;-86
2022/11/19 06:17:46;;;;;;;8.05;2.10;;;28.30;99.90;;;;;;5034613;28;20205;-86
2022/11/19 06:20:20;;;;;;;7.78;1.55;;;28.60;99.90;;;;;;5034288;28;20209;-85
2022/11/19 06:22:53;;;;;;;6.75;1.50;;;28.80;99.90;;;;;;5033313;28;20243;-87
2022/11/19 06:25:24;;;;;;;5.47;1.50;;;28.90;99.90;;;;;;5032866;28;20194;-86
2022/11/19 06:27:55;;;;;;;5.85;1.83;;;28.90;99.90;;;;;;5034319;28;20268;-86
2022/11/19 06:30:26;;;;;;;9.55;1.98;;;28.90;99.90;;;;;;5033054;28;20193;-87
2022/11/19 06:32:57;;;;;;;6.55;1.80;;;29.00;99.90;;;;;;5033716;28;20229;-88
2022/11/19 06:35:30;;;;;;;8.75;2.33;;;29.30;99.90;;;;;;5024059;28;20695;-86
2022/11/19 06:38:01;;;;;;;10.48;1.88;;;29.60;99.90;;;;;;5019952;28;20308;-87
2022/11/19 06:40:32;;;;;;;9.60;1.90;;;30.00;99.90;;;;;;5032009;28;20220;-85
2022/11/19 06:43:03;;;;;;;8.02;1.60;;;30.20;99.90;;;;;;5030429;28;20267;-88
2022/11/19 06:45:34;;;;;;;7.78;1.55;;;30.30;99.90;;;;;;5031148;28;20268;-86
2022/11/19 06:48:05;;;;;;;6.18;1.65;;;30.20;99.90;;;;;;5020211;28;20189;-87
2022/11/19 06:50:38;;;;;;;10.52;2.28;;;30.60;99.90;;;;;;5014003;28;20201;-88
2022/11/19 06:53:09;;;;;;;7.30;1.65;;;31.00;99.90;;;;;;5014313;28;20206;-87
2022/11/19 06:55:39;;;;;;;4.38;1.50;;;30.90;99.90;;;;;;5031710;28;20221;-87
2022/11/19 06:58:10;;;;;;;6.70;1.70;;;30.90;99.90;;;;;;5012994;28;20218;-83
2022/11/19 07:00:41;;;;;;;10.27;1.70;;;30.80;99.90;;;;;;5031020;28;20190;-85
2022/11/19 07:03:12;;;;;;;7.10;1.90;;;30.80;99.90;;;;;;5027022;28;20202;-84
2022/11/19 07:05:45;;;;;;;9.25;1.70;;;30.30;99.90;;;;;;5020252;28;20196;-86
2022/11/19 07:08:16;;;;;;;8.40;1.95;;;29.50;99.90;;;;;;5030676;28;20193;-84
2022/11/19 07:10:47;;;;;;;7.05;1.75;;;29.40;99.90;;;;;;5018193;28;20682;-85
2022/11/19 07:13:18;;;;;;;7.45;2.00;;;29.40;99.90;;;;;;5039664;28;20257;-82
2022/11/19 07:15:50;;;;;;;6.90;1.70;;;29.60;99.90;;;;;;5030209;28;20595;-84
2022/11/19 07:18:20;;;;;;;8.73;1.98;;;29.50;99.90;;;;;;5028317;28;20213;-86
2022/11/19 07:20:57;;;;;;;12.13;1.90;;;29.30;99.90;;;;;;5024016;28;20205;-86
2022/11/19 07:23:28;;;;;;;7.40;1.95;;;29.10;99.90;;;;;;5032575;28;20291;-86
2022/11/19 07:26:04;;;;;;;8.63;2.00;;;29.30;99.90;;;;;;5022889;28;20252;-86
2022/11/19 07:28:38;;;;;;;8.02;2.25;;;29.20;99.90;;;;;;5023067;28;20205;-87
2022/11/19 07:31:09;;;;;;;7.30;1.65;;;28.70;99.90;;;;;;5024678;28;20683;-85
2022/11/19 07:33:40;;;;;;;8.80;1.92;;;28.00;99.90;;;;;;5019621;28;20197;-86
2022/11/19 07:36:14;;;;;;;7.43;1.77;;;28.00;99.90;;;;;;5022916;28;20241;-86
2022/11/19 07:38:45;;;;;;;8.32;2.15;;;28.00;99.90;;;;;;5011782;28;20202;-86
2022/11/19 07:44:02;;;;;;;6.80;1.77;;;27.60;99.90;;;;;;5028180;28;20201;-86
2022/11/19 07:46:33;;;;;;;7.65;1.80;;;27.10;99.90;;;;;;5013548;28;20224;-86
2022/11/19 07:49:04;;;;;;;9.35;1.92;;;26.70;99.90;;;;;;5014442;28;20193;-85
2022/11/19 07:51:38;;;;;;;5.97;1.92;;;26.30;99.90;;;;;;5016750;28;20197;-86
2022/11/19 07:54:10;;;;;;;9.35;1.90;;;25.80;99.90;;;;;;5023309;28;20226;-86
2022/11/19 07:56:41;;;;;;;10.13;2.10;;;25.50;99.90;;;;;;5011865;28;20244;-86
2022/11/19 07:59:12;;;;;;;8.15;1.90;;;25.20;99.90;;;;;;5029066;28;20199;-84
2022/11/19 08:01:44;;;;;;;9.68;1.90;;;25.10;99.90;;;;;;5028909;28;20198;-84
2022/11/19 08:04:14;;;;;;;7.50;1.85;;;24.70;99.90;;;;;;5021870;28;20247;-86
2022/11/19 08:06:47;;;;;;;6.63;1.90;;;24.60;99.90;;;;;;5024409;28;20683;-86
2022/11/19 08:09:18;;;;;;;6.43;2.03;;;24.40;99.90;;;;;;5026076;28;20197;-84
2022/11/19 08:11:49;;;;;;;8.63;1.90;;;24.20;99.90;;;;;;5016644;28;20194;-85
2022/11/19 08:14:20;;;;;;;7.25;1.80;;;24.00;99.90;;;;;;5034107;28;20217;-84
2022/11/19 08:19:37;;;;;;;11.52;2.00;;;23.70;99.90;;;;;;5023163;28;20208;-85
2022/11/19 08:22:13;;;;;;;8.02;1.90;;;23.60;99.90;;;;;;5021301;28;20224;-84
2022/11/19 08:24:45;;;;;;;8.82;2.00;;;23.60;99.90;;;;;;5026027;28;20193;-84
2022/11/19 08:27:16;;;;;;;7.53;2.00;;;23.60;99.90;;;;;;5017278;28;20586;-85
2022/11/19 08:29:46;;;;;;;9.75;2.10;;;23.60;99.90;;;;;;5030781;28;20252;-83
2022/11/19 08:32:18;;;;;;;8.00;2.00;;;23.60;99.90;;;;;;5021479;28;20221;-86
2022/11/19 08:34:49;;;;;;;11.13;2.15;;;23.50;99.90;;;;;;5016242;28;20226;-84
2022/11/19 08:37:22;;;;;;;6.05;2.25;;;23.40;99.90;;;;;;5012433;28;20684;-84
2022/11/19 08:39:53;;;;;;;8.95;2.00;;;23.40;99.90;;;;;;5012245;28;21409;-84
2022/11/19 08:45:12;;;;;;;8.70;2.42;;;23.30;99.90;;;;;;5012303;28;20232;-86
2022/11/19 08:47:43;;;;;;;7.63;2.20;;;23.40;99.90;;;;;;5010332;28;20189;-85
2022/11/19 08:50:14;;;;;;;7.57;2.00;;;23.40;99.90;;;;;;5011030;28;20214;-84
2022/11/19 08:52:47;;;;;;;9.57;2.33;;;23.30;99.90;;;;;;5010084;28;20201;-84
2022/11/19 08:55:18;;;;;;;8.90;2.20;;;23.30;99.90;;;;;;5009428;28;21010;-84
2022/11/19 08:57:48;;;;;;;8.48;2.25;;;23.20;99.90;;;;;;5008535;28;20205;-84
2022/11/19 09:00:21;;;;;;;13.10;2.28;;;23.20;99.90;;;;;;5007295;28;20644;-83
2022/11/19 09:02:53;;;;;;;10.18;2.20;;;23.20;99.90;;;;;;5013665;28;20254;-82
2022/11/19 09:05:24;;;;;;;11.00;1.75;;;23.20;99.90;;;;;;5009791;28;20197;-82
2022/11/19 09:07:58;;;;;;;9.90;3.30;;;23.10;99.90;;;;;;5010900;28;20535;-82
2022/11/19 09:10:29;;;;;;;7.35;2.50;;;23.10;99.90;;;;;;5009059;28;20208;-83
2022/11/19 09:13:00;;;;;;;10.07;2.03;;;23.20;99.90;;;;;;5015213;28;20193;-83
2022/11/19 09:15:32;;;;;;;10.23;2.60;;;23.20;99.90;;;;;;5031409;28;20307;-84
2022/11/19 09:18:03;;;;;;;10.52;2.42;;;23.20;99.90;;;;;;5016172;28;20305;-84
2022/11/19 09:20:34;;;;;;;10.93;2.40;;;23.20;99.90;;;;;;5013623;28;20204;-82
2022/11/19 09:23:07;;;;;;;8.40;2.10;;;23.20;99.90;;;;;;5010338;28;20197;-82
2022/11/19 09:25:39;;;;;;;13.52;2.83;;;23.10;99.90;;;;;;5013670;28;20362;-84
2022/11/19 09:28:15;;;;;;;11.23;2.78;;;23.00;99.90;;;;;;5028636;28;20695;-83
2022/11/19 09:30:59;;;;;;;11.07;2.75;;;23.00;99.90;;;;;;5031247;28;20212;-83
2022/11/19 09:33:34;;;;;;;11.90;2.30;;;22.90;99.90;;;;;;5003553;28;20198;-84
2022/11/19 09:36:05;;;;;;;10.48;2.30;;;22.90;99.90;;;;;;5003307;28;20280;-85
2022/11/19 09:38:41;;;;;;;7.82;2.20;;;22.90;99.90;;;;;;4988389;28;20281;-84
2022/11/19 09:41:52;;;;;;;12.80;2.90;;;22.90;99.90;;;;;;4991968;28;20278;-84
2022/11/19 09:44:48;;;;;;;11.43;2.55;;;22.80;99.90;;;;;;4989930;28;20225;-85
2022/11/19 09:47:30;;;;;;;15.13;2.40;;;22.80;99.90;;;;;;4992504;28;20230;-86
2022/11/19 09:50:13;;;;;;;9.23;2.50;;;22.80;99.90;;;;;;4987917;28;20195;-82
2022/11/19 09:55:41;;;;;;;9.70;2.35;;;22.70;99.90;;;;;;4985949;28;20229;-84
2022/11/19 09:58:20;;;;;;;11.23;2.17;;;22.70;99.90;;;;;;4989512;28;20202;-84
2022/11/19 10:00:54;;;;;;;7.97;2.28;;;22.80;99.90;;;;;;4991917;28;20190;-84
2022/11/19 10:03:51;;;;;;;8.23;1.83;;;22.80;99.90;;;;;;4996141;28;20194;-86
2022/11/19 10:06:37;;;;;;;10.45;1.98;;;22.70;99.90;;;;;;4987976;28;20714;-85
2022/11/19 10:09:38;;;;;;;8.77;1.95;;;22.70;99.90;;;;;;5002516;28;20191;-84
2022/11/19 10:12:26;;;;;;;5.72;1.38;;;22.80;99.90;;;;;;4985538;28;20194;-83
2022/11/19 10:15:21;;;;;;;6.90;1.75;;;22.80;99.90;;;;;;4985319;28;20253;-84
2022/11/19 10:21:10;;;;;;;7.93;2.15;;;22.80;99.90;;;;;;4998438;28;20639;-82
2022/11/19 10:23:54;;;;;;;9.73;2.13;;;22.80;99.90;;;;;;4992787;28;20192;-82
2022/11/19 10:26:35;;;;;;;6.07;1.85;;;22.70;99.90;;;;;;5001221;28;20209;-83
2022/11/19 10:29:25;;;;;;;9.40;1.92;;;22.80;99.90;;;;;;5005192;28;20627;-83
2022/11/19 10:32:11;;;;;;;9.85;1.90;;;22.80;99.90;;;;;;5014838;28;20229;-82
2022/11/19 10:34:46;;;;;;;9.30;2.70;;;22.80;99.90;;;;;;5031714;28;20308;-82
2022/11/19 10:37:23;;;;;;;10.48;2.40;;;22.80;99.90;;;;;;5041534;28;20280;-84
2022/11/19 10:40:00;;;;;;;8.82;1.98;;;22.80;99.90;;;;;;5044968;28;20615;-83
2022/11/19 10:42:40;;;;;;;15.63;2.72;;;22.80;99.90;;;;;;5046268;28;20199;-83
2022/11/19 10:45:22;;;;;;;9.48;2.20;;;22.80;99.90;;;;;;5031699;28;20202;-82
2022/11/19 10:48:01;;;;;;;7.97;2.20;;;22.70;99.90;;;;;;5044109;28;20284;-82
2022/11/19 10:50:33;;;;;;;11.75;2.38;;;22.70;99.90;;;;;;5020703;28;20267;-83
2022/11/19 10:53:22;;;;;;;12.02;2.42;;;22.60;99.90;;;;;;5025564;28;20260;-83
2022/11/19 10:55:58;;;;;;;11.95;2.28;;;22.50;99.90;;;;;;5039757;28;20289;-83
2022/11/19 10:58:35;;;;;;;10.18;2.30;;;22.60;99.90;;;;;;5029698;28;20247;-82
2022/11/19 11:01:17;;;;;;;12.57;2.47;;;22.60;99.90;;;;;;5038074;28;20189;-83
2022/11/19 11:03:53;;;;;;;10.90;2.30;;;22.60;99.90;;;;;;5027604;28;20205;-83
2022/11/19 11:06:26;;;;;;;9.73;1.95;;;22.60;99.90;;;;;;5046655;28;20200;-83
2022/11/19 11:09:04;;;;;;;16.23;2.42;;;22.70;99.90;;;;;;5037285;28;20221;-83
2022/11/19 11:14:56;;;;;;;9.00;1.98;;;22.60;99.90;;;;;;5050790;28;20241;-83
2022/11/19 11:17:34;;;;;;;6.63;2.10;;;22.70;99.90;;;;;;5053145;28;20284;-84
2022/11/19 11:20:08;;;;;;;8.75;1.80;;;22.60;99.90;;;;;;5038260;28;20577;-83
2022/11/19 11:22:39;;;;;;;8.88;2.15;;;22.60;99.90;;;;;;5030139;28;20196;-83
2022/11/19 11:25:24;;;;;;;8.77;2.08;;;22.70;99.90;;;;;;5030033;28;20202;-82
2022/11/19 11:28:07;;;;;;;10.70;2.45;;;22.70;99.90;;;;;;5019890;28;20692;-82
2022/11/19 11:30:38;;;;;;;10.05;2.10;;;22.60;99.90;;;;;;5022291;28;20197;-82
2022/11/19 11:33:37;;;;;;;7.68;2.00;;;22.50;99.90;;;;;;5021455;28;20229;-82
2022/11/19 11:36:11;;;;;;;7.63;2.65;;;22.60;99.90;;;;;;5029328;28;20241;-81
2022/11/19 11:38:46;;;;;;;8.15;1.85;;;22.60;99.90;;;;;;5031773;28;20678;-81
2022/11/19 11:41:20;;;;;;;7.82;1.80;;;22.70;99.90;;;;;;5032942;28;20201;-81
2022/11/19 11:44:07;;;;;;;9.55;2.13;;;22.60;99.90;;;;;;5028818;28;20223;-81
2022/11/19 11:46:42;;;;;;;9.98;2.25;;;22.60;99.90;;;;;;5028026;28;20233;-82
2022/11/19 11:49:26;;;;;;;7.22;2.05;;;22.60;99.90;;;;;;5025337;28;20196;-82
2022/11/19 11:52:22;;;;;;;7.75;2.20;;;22.60;99.90;;;;;;5030099;28;20399;-81
2022/11/19 11:55:00;;;;;;;6.63;1.95;;;22.60;99.90;;;;;;5030444;28;20216;-81
2022/11/19 11:57:35;;;;;;;9.45;2.10;;;22.60;99.90;;;;;;5028056;28;20216;-81
2022/11/19 12:00:30;;;;;;;5.05;1.70;;;22.60;99.90;;;;;;5030123;28;20197;-81
2022/11/19 12:03:06;;;;;;;5.15;1.60;;;22.60;99.90;;;;;;5026754;28;20197;-81
2022/11/19 12:05:48;;;;;;;9.15;2.00;;;22.60;99.90;;;;;;5029048;28;20204;-82
2022/11/19 12:08:38;;;;;;;8.77;1.92;;;22.60;99.90;;;;;;5027721;28;20239;-81
2022/11/19 12:11:20;;;;;;;6.65;2.20;;;22.60;99.90;;;;;;5026819;28;20201;-81
2022/11/19 12:14:09;;;;;;;6.88;1.83;;;22.60;99.90;;;;;;5029944;28;20196;-82
2022/11/19 12:16:51;;;;;;;10.40;2.08;;;22.60;99.90;;;;;;5026848;28;20679;-82
2022/11/19 12:19:40;;;;;;;10.13;2.10;;;22.70;99.90;;;;;;5032214;28;20254;-82
2022/11/19 12:22:23;;;;;;;4.60;1.95;;;22.70;99.90;;;;;;5030123;28;20247;-83
2022/11/19 12:25:22;;;;;;;6.47;1.80;;;22.70;99.90;;;;;;5030017;28;20198;-83
2022/11/19 12:28:15;;;;;;;6.22;2.03;;;22.70;99.90;;;;;;5020343;28;21251;-82
2022/11/19 12:30:59;;;;;;;8.55;2.03;;;22.70;99.90;;;;;;5023550;28;20424;-83
2022/11/19 12:33:49;;;;;;;7.90;1.88;;;22.80;99.90;;;;;;5030945;28;20209;-83
2022/11/19 12:36:31;;;;;;;7.25;1.77;;;22.70;99.90;;;;;;5016485;28;20221;-82
2022/11/19 12:39:10;;;;;;;5.93;1.85;;;22.70;99.90;;;;;;5026794;28;20214;-82
2022/11/19 12:42:09;;;;;;;7.05;1.98;;;22.70;99.90;;;;;;5025746;28;20197;-82
2022/11/19 12:44:50;;;;;;;7.47;2.03;;;22.60;99.90;;;;;;5019940;28;20297;-82
2022/11/19 12:47:36;;;;;;;6.32;1.83;;;22.70;99.90;;;;;;5025379;28;20225;-82
2022/11/19 12:50:24;;;;;;;4.25;1.60;;;22.70;99.90;;;;;;5017470;28;20222;-82
2022/11/19 12:53:19;;;;;;;3.60;1.63;;;22.70;99.90;;;;;;5019430;28;20300;-82
2022/11/19 12:56:03;;;;;;;6.72;1.90;;;22.70;99.90;;;;;;5022708;28;20284;-82
2022/11/19 12:58:43;;;;;;;8.32;2.00;;;22.70;99.90;;;;;;5030309;28;20303;-81
2022/11/19 13:01:18;;;;;;;6.47;1.88;;;22.70;99.90;;;;;;5019939;28;20189;-82
2022/11/19 13:03:59;;;;;;;7.18;1.90;;;22.60;99.90;;;;;;5041741;22;20224;-82
2022/11/19 13:06:36;;;;;;;4.40;1.60;;;22.60;99.90;;;;;;5050120;28;20307;-81
2022/11/19 13:09:14;;;;;;;6.00;1.77;;;22.60;99.90;;;;;;5049502;28;20283;-82
2022/11/19 13:11:52;;;;;;;6.50;1.77;;;22.60;99.90;;;;;;5041637;28;20259;-81
2022/11/19 13:14:31;;;;;;;7.72;1.70;;;22.50;99.90;;;;;;5051136;28;20197;-81
2022/11/19 13:17:05;;;;;;;5.68;1.70;;;22.50;99.90;;;;;;5052338;28;20216;-81
2022/11/19 13:19:38;;;;;;;5.95;1.77;;;22.50;99.90;;;;;;5040005;28;20221;-82
2022/11/19 13:22:16;;;;;;;6.65;2.05;;;22.50;99.90;;;;;;5026546;28;20251;-82
2022/11/19 13:24:55;;;;;;;6.50;2.00;;;22.40;99.90;;;;;;5024131;28;20738;-82
2022/11/19 13:27:32;;;;;;;9.23;2.17;;;22.40;99.90;;;;;;5019315;28;20236;-82
2022/11/19 13:30:04;;;;;;;5.85;1.83;;;22.40;99.90;;;;;;5030893;28;20211;-82
2022/11/19 13:32:41;;;;;;;4.63;1.80;;;22.30;99.90;;;;;;5018296;28;20520;-82
2022/11/19 13:35:23;;;;;;;8.18;2.40;;;22.30;99.90;;;;;;5021447;28;20213;-82
2022/11/19 13:38:03;;;;;;;6.13;2.00;;;22.30;99.90;;;;;;5026317;28;20216;-82
2022/11/19 13:40:38;;;;;;;7.00;2.13;;;22.30;99.90;;;;;;5013162;28;20227;-82
2022/11/19 13:46:10;;;;;;;5.15;2.03;;;22.20;99.90;;;;;;5028228;28;20336;-82
2022/11/19 13:48:43;;;;;;;7.13;1.77;;;22.20;99.90;;;;;;5029833;28;20226;-81
2022/11/19 13:51:23;;;;;;;5.53;1.88;;;22.10;99.90;;;;;;5038117;28;20197;-82
2022/11/19 13:53:56;;;;;;;4.63;1.95;;;22.10;99.90;;;;;;5045470;28;20566;-82
2022/11/19 13:56:42;;;;;;;3.53;1.85;;;22.10;99.90;;;;;;5029736;28;20229;-82
2022/11/19 13:59:35;;;;;;;6.70;2.33;;;22.10;99.90;;;;;;5030877;28;20691;-82
2022/11/19 14:02:44;;;;;;;7.65;2.25;;;22.10;99.90;;;;;;5031624;28;20255;-82
2022/11/19 14:05:43;;;;;;;10.95;1.90;;;22.00;99.90;;;;;;5038288;28;20267;-82
2022/11/19 14:08:26;;;;;;;7.05;2.17;;;22.00;99.90;;;;;;5040430;28;20201;-82